Terminal Aerodrome Forecast
Issued by NWS

Home | Current Version | Previous Version | Text Only | Print | Product List | Glossary On
Versions: 1 2 3 4 5 6 7 8 9 10 11 12 13 14 15
000
FTUS43 KICT 240600 AAA
TAFRSL
TAF AMD
KRSL 240642Z 2407/2506 31022G35KT P6SM -SHRA VCTS OVC045CB
     FM240900 33017G25KT P6SM VCSH OVC025
     FM241100 34017G25KT P6SM SCT025 OVC080
     FM241700 34022G30KT P6SM BKN200=

USA.gov is the U.S. government's official web portal to all federal, state and local government web resources and services.